Messwerte Puerto Princesa

Temperatur

Temperatur
°C
1614150000 15.00 15.00 31
1614153600 16.00 16.00 31
1614157200 17.00 17.00 30
1614160800 18.00 18.00 29
1614164400 19.00 19.00 29
1614168000 20.00 20.00 28
1614171600 21.00 21.00
1614175200 22.00 22.00
1614178800 23.00 23.00 26
1614182400 0.00 0.00
1614186000 1.00 1.00
1614189600 2.00 2.00 26
1614193200 3.00 3.00
1614196800 4.00 4.00
1614200400 5.00 5.00 26
1614204000 6.00 6.00 26
1614207600 7.00 7.00 25
1614211200 8.00 8.00 28
1614214800 9.00 9.00 30
1614218400 10.00 10.00 31
1614222000 11.00 11.00 31
1614225600 12.00 12.00 31
1614229200 13.00 13.00 31
1614232800 14.00 14.00 31

Aktuellste Messwerte

Wettercharakter
Wetter: recht sonnig
Temperatur
31 °C
Feuchtigkeit
65 %
Wind
15 km/hWindrichtung: Ost
Luftdruck
1007 hPa
Messzeit: 25. Februar 2021, 14.00Datenquelle: METAR

Weitere Messstationen in der Nähe

Messstation Temperatur Entfernung
Kudat 30 °C 378 km
Sandakan - 434 km
Zamboanga 28 °C 485 km

Wind

Windrichtung Böen Mittelwind
° km/h km/h
1614150000 15.00 14.00 - 15.00 90° 5
1614153600 16.00 15.00 - 16.00 90° 5
1614157200 17.00 16.00 - 17.00 90° 5
1614160800 18.00 17.00 - 18.00 90° 5
1614164400 19.00 18.00 - 19.00 90° 5
1614168000 20.00 19.00 - 20.00 120° 5
1614171600 21.00 20.00 - 21.00
1614175200 22.00 21.00 - 22.00
1614178800 23.00 22.00 - 23.00 270° 5
1614182400 0.00 23.00 - 0.00
1614186000 1.00 0.00 - 1.00
1614189600 2.00 1.00 - 2.00 270° 5
1614193200 3.00 2.00 - 3.00
1614196800 4.00 3.00 - 4.00
1614200400 5.00 4.00 - 5.00 320° 10
1614204000 6.00 5.00 - 6.00 270° 10
1614207600 7.00 6.00 - 7.00 270° 5
1614211200 8.00 7.00 - 8.00 270° 5
1614214800 9.00 8.00 - 9.00 90° 5
1614218400 10.00 9.00 - 10.00 90° 15
1614222000 11.00 10.00 - 11.00 90° 15
1614225600 12.00 11.00 - 12.00 90° 15
1614229200 13.00 12.00 - 13.00 90° 15
1614232800 14.00 13.00 - 14.00 90° 15

Ihre Wetterstation

Fehlt Ihre Wetterstation auf unserem Portal?

Schreiben Sie an network@meteonews.ch

Klima

Wann ist es am wärmsten? Wann regnet es am wenigsten? Unsere Klimadaten geben Auskunft.